EPWR

Copernicus Wrocław Airport

Wrocław, Poland
METAR EPWR 190500Z 12009KT 3000 BR NSC M03/M04 Q1023
Observed Flight Rules
Dec-19 @ 05:00 UTC (33 minutes ago) Instrument Flight Rules
Wind Visibility Clouds Conditions
120° at 9 knots 2,993 meters
  • Clear skies
  • Mist
Temperatures Readings
Current -3°C / 27°F
Dewpoint -4°C / 25°F
Humidity 93%
Altimeter 30.21" Hg
Pressure 1023 hPa
Elevation 121
METAR EPWR 190500Z 12009KT 3000 BR NSC M03/M04 Q1023
Observed Flight Rules
Dec-19 @ 05:00 UTC
(33 minutes ago)
IFR
Wind Visibility
120° at 9 knots 2,993 meters
Clouds
  • Clear skies
Conditions
  • Mist
Temperature Dewpoint
-3°C / 27°F -4°C / 25°F
Humidity Altimeter Pressure
93% 30.21" Hg 1023 hPa